Medlin's Ranch, Nevada Weather observations

Data are for observation ending at time listed.
 Day   Time    Ave.   Ave.  Ave.  Vector   Max.   Stn.    Total    Solar   Ave.  
  of    of     Air    Rel.  Wind   Wind    Wind   Baro.  Precip.   Rad.    Soil  
Year   Day     Temp.  Hum.  Speed  Dir.    Gust   Pres.                    Temp. 
2017   (PST)    F      %     mph   deg.    mph     mb.     in.     W/m2     F   
------------------------------------------------------------------------------
  16   11:00   36.5    44   13.5   316     21.5    868     0.00     535    35.0
  16   12:00   38.9    38   14.1   317     22.9    867     0.00     599    35.5
  16   13:00   40.8    35   13.3   317     19.6    866     0.00     599    36.7
  16   14:00   42.9    33   11.4   323     17.0    865     0.00     535    37.7
  16   15:00   44.4    30    9.9   324     17.8    865     0.00     414    38.0
  16   16:00   44.4    30    9.0   322     15.2    865     0.00     249    37.9
  16   17:00   41.1    34   11.2   314     19.2    866     0.00      58    37.8
  16   18:00   38.6    39   10.2   315     17.8    866     0.00       0    37.5
  16   19:00   36.3    42    7.7   316     13.1    866     0.00       0    37.1
  16   20:00   35.9    43    9.4   318     15.5    867     0.00       0    36.7
  16   21:00   34.1    48    7.4   320     14.8    867     0.00       0    36.4
  16   22:00   31.9    54    6.1   336     13.2    867     0.00       0    36.2
  16   23:00   30.6    57    6.0     6     11.8    867     0.00       0    35.9
  17    0:00   30.3    57    5.9   340      9.6    867     0.00       0    35.6
  17    1:00   29.3    59    6.7   340     11.7    867     0.00       0    35.4
  17    2:00   28.1    62    6.5   348     12.1    867     0.00       0    35.2
  17    3:00   29.4    56    6.8   341     12.9    867     0.00       0    34.9
  17    4:00   27.4    60    5.6   360      8.6    866     0.00       0    34.7
  17    5:00   26.0    63    5.5   357     10.3    866     0.00       0    34.5
  17    6:00   26.7    59    8.4   342     13.7    866     0.00       0    34.3
  17    7:00   27.1    56    7.6   330     13.3    866     0.00       0    34.2
  17    8:00   28.7    53    8.6   337     15.5    867     0.00      58    34.0
  17    9:00   32.9    46    9.3   344     15.8    868     0.00     262    33.9
  17   10:00   37.1    37    3.7   358     10.4    868     0.00     431    33.9

Return to Medlin's Ranch, Nevada graphs page.


Western Regional Climate Center,wrcc@dri.edu